sensor_id;sensor_type;location;lat;lon;timestamp;pressure;altitude;pressure_sealevel;temperature;humidity
56414;BME280;42318;48.452;19.526;2023-02-13T00:02:51;100269.78;;;19.90;43.82
56414;BME280;42318;48.452;19.526;2023-02-13T00:10:22;100280.22;;;19.93;43.70
56414;BME280;42318;48.452;19.526;2023-02-13T00:17:53;100268.09;;;19.89;43.58
56414;BME280;42318;48.452;19.526;2023-02-13T00:25:24;100266.66;;;19.87;43.46
56414;BME280;42318;48.452;19.526;2023-02-13T00:32:54;100272.50;;;19.90;43.31
56414;BME280;42318;48.452;19.526;2023-02-13T00:40:25;100285.47;;;19.88;43.27
56414;BME280;42318;48.452;19.526;2023-02-13T00:47:56;100287.34;;;19.88;43.71
56414;BME280;42318;48.452;19.526;2023-02-13T00:55:27;100283.41;;;19.84;43.35
56414;BME280;42318;48.452;19.526;2023-02-13T01:02:57;100302.63;;;19.89;43.08
56414;BME280;42318;48.452;19.526;2023-02-13T01:10:29;100304.09;;;19.85;43.09
56414;BME280;42318;48.452;19.526;2023-02-13T01:18:00;100303.91;;;19.86;43.25
56414;BME280;42318;48.452;19.526;2023-02-13T01:25:31;100305.78;;;19.86;42.91
56414;BME280;42318;48.452;19.526;2023-02-13T01:33:01;100278.56;;;19.86;42.87
56414;BME280;42318;48.452;19.526;2023-02-13T01:40:32;100273.78;;;19.81;42.82
56414;BME280;42318;48.452;19.526;2023-02-13T01:56:18;100285.91;;;19.85;42.48
56414;BME280;42318;48.452;19.526;2023-02-13T02:04:18;100281.50;;;19.84;42.69
56414;BME280;42318;48.452;19.526;2023-02-13T02:11:58;100270.22;;;19.81;42.63
56414;BME280;42318;48.452;19.526;2023-02-13T02:34:53;100257.88;;;19.78;42.68
56414;BME280;42318;48.452;19.526;2023-02-13T02:58:10;100242.63;;;19.70;42.73
56414;BME280;42318;48.452;19.526;2023-02-13T03:06:08;100248.47;;;19.67;43.08
56414;BME280;42318;48.452;19.526;2023-02-13T03:13:43;100251.63;;;19.71;42.83
56414;BME280;42318;48.452;19.526;2023-02-13T03:21:23;100252.66;;;19.70;42.72
56414;BME280;42318;48.452;19.526;2023-02-13T03:29:27;100241.56;;;19.71;42.58
56414;BME280;42318;48.452;19.526;2023-02-13T03:37:27;100246.38;;;19.69;42.77
56414;BME280;42318;48.452;19.526;2023-02-13T03:45:27;100229.44;;;19.67;42.48
56414;BME280;42318;48.452;19.526;2023-02-13T03:53:18;100234.88;;;19.67;42.59
56414;BME280;42318;48.452;19.526;2023-02-13T04:00:51;100224.00;;;19.67;42.51
56414;BME280;42318;48.452;19.526;2023-02-13T04:08:23;100238.66;;;19.66;42.62
56414;BME280;42318;48.452;19.526;2023-02-13T04:16:07;100247.88;;;19.59;42.70
56414;BME280;42318;48.452;19.526;2023-02-13T04:23:39;100214.00;;;19.55;42.81
56414;BME280;42318;48.452;19.526;2023-02-13T04:31:10;100208.09;;;19.44;43.07
56414;BME280;42318;48.452;19.526;2023-02-13T04:38:41;100212.06;;;19.49;43.11
56414;BME280;42318;48.452;19.526;2023-02-13T04:46:12;100209.75;;;19.45;42.79
56414;BME280;42318;48.452;19.526;2023-02-13T04:53:43;100207.72;;;19.54;42.53
56414;BME280;42318;48.452;19.526;2023-02-13T05:01:14;100201.63;;;19.52;42.66
56414;BME280;42318;48.452;19.526;2023-02-13T05:08:46;100202.91;;;19.56;42.43
56414;BME280;42318;48.452;19.526;2023-02-13T05:16:16;100190.16;;;19.57;42.42
56414;BME280;42318;48.452;19.526;2023-02-13T05:23:47;100184.31;;;19.53;42.74
56414;BME280;42318;48.452;19.526;2023-02-13T05:31:18;100202.91;;;19.56;42.45
56414;BME280;42318;48.452;19.526;2023-02-13T05:38:49;100212.13;;;19.55;42.34
56414;BME280;42318;48.452;19.526;2023-02-13T05:46:20;100201.41;;;19.47;42.49
56414;BME280;42318;48.452;19.526;2023-02-13T05:53:50;100207.03;;;19.45;42.68
56414;BME280;42318;48.452;19.526;2023-02-13T06:01:22;100209.34;;;19.49;42.43
56414;BME280;42318;48.452;19.526;2023-02-13T06:08:53;100212.69;;;19.44;42.58
56414;BME280;42318;48.452;19.526;2023-02-13T06:16:24;100209.97;;;19.44;42.64
56414;BME280;42318;48.452;19.526;2023-02-13T06:23:55;100222.53;;;19.45;42.65
56414;BME280;42318;48.452;19.526;2023-02-13T06:31:26;100218.97;;;19.44;42.83
56414;BME280;42318;48.452;19.526;2023-02-13T06:38:57;100234.84;;;19.48;42.54
56414;BME280;42318;48.452;19.526;2023-02-13T06:46:28;100232.19;;;19.54;42.61
56414;BME280;42318;48.452;19.526;2023-02-13T06:53:59;100237.22;;;19.57;42.26
56414;BME280;42318;48.452;19.526;2023-02-13T07:01:29;100236.38;;;19.57;42.29
56414;BME280;42318;48.452;19.526;2023-02-13T07:09:03;100250.56;;;19.52;42.34
56414;BME280;42318;48.452;19.526;2023-02-13T07:16:34;100257.06;;;19.51;42.61
56414;BME280;42318;48.452;19.526;2023-02-13T07:24:05;100260.16;;;19.48;42.58
56414;BME280;42318;48.452;19.526;2023-02-13T07:31:36;100264.16;;;19.52;42.21
56414;BME280;42318;48.452;19.526;2023-02-13T07:39:08;100265.00;;;19.66;41.94
56414;BME280;42318;48.452;19.526;2023-02-13T07:46:39;100263.31;;;19.78;41.88
56414;BME280;42318;48.452;19.526;2023-02-13T07:54:10;100257.03;;;19.84;41.77
56414;BME280;42318;48.452;19.526;2023-02-13T08:01:41;100253.03;;;19.93;41.58
56414;BME280;42318;48.452;19.526;2023-02-13T08:09:19;100252.41;;;20.04;42.24
56414;BME280;42318;48.452;19.526;2023-02-13T08:17:08;100262.84;;;20.07;42.25
56414;BME280;42318;48.452;19.526;2023-02-13T08:24:39;100264.50;;;20.15;42.36
56414;BME280;42318;48.452;19.526;2023-02-13T08:32:10;100262.81;;;20.21;42.13
56414;BME280;42318;48.452;19.526;2023-02-13T08:39:41;100258.38;;;20.26;42.30
56414;BME280;42318;48.452;19.526;2023-02-13T08:47:12;100250.44;;;20.25;42.45
56414;BME280;42318;48.452;19.526;2023-02-13T08:54:43;100250.84;;;20.28;42.33
56414;BME280;42318;48.452;19.526;2023-02-13T09:02:14;100247.69;;;20.38;42.39
56414;BME280;42318;48.452;19.526;2023-02-13T09:09:45;100244.13;;;20.44;42.37
56414;BME280;42318;48.452;19.526;2023-02-13T09:17:15;100252.25;;;20.51;42.00
56414;BME280;42318;48.452;19.526;2023-02-13T09:24:48;100249.72;;;20.56;42.01
56414;BME280;42318;48.452;19.526;2023-02-13T09:32:19;100268.97;;;20.61;42.08
56414;BME280;42318;48.452;19.526;2023-02-13T09:39:50;100273.53;;;20.67;41.93
56414;BME280;42318;48.452;19.526;2023-02-13T09:47:27;100286.28;;;20.73;42.07
56414;BME280;42318;48.452;19.526;2023-02-13T09:55:00;100259.09;;;20.66;42.10
56414;BME280;42318;48.452;19.526;2023-02-13T10:02:37;100251.31;;;20.70;42.22
56414;BME280;42318;48.452;19.526;2023-02-13T10:17:53;100229.25;;;20.85;42.22
56414;BME280;42318;48.452;19.526;2023-02-13T10:25:27;100206.41;;;20.86;42.41
56414;BME280;42318;48.452;19.526;2023-02-13T11:03:49;100180.53;;;21.20;41.79
56414;BME280;42318;48.452;19.526;2023-02-13T11:11:30;100176.34;;;21.24;41.72
56414;BME280;42318;48.452;19.526;2023-02-13T11:19:01;100166.09;;;21.26;41.82
56414;BME280;42318;48.452;19.526;2023-02-13T11:26:34;100162.06;;;21.28;41.80
56414;BME280;42318;48.452;19.526;2023-02-13T11:41:51;100144.63;;;21.05;42.43
56414;BME280;42318;48.452;19.526;2023-02-13T11:49:24;100133.41;;;20.94;42.40
56414;BME280;42318;48.452;19.526;2023-02-13T12:04:30;100136.66;;;20.78;42.84
56414;BME280;42318;48.452;19.526;2023-02-13T12:12:03;100129.97;;;20.74;42.96
56414;BME280;42318;48.452;19.526;2023-02-13T12:19:40;100111.34;;;20.71;42.95
56414;BME280;42318;48.452;19.526;2023-02-13T12:42:46;100096.94;;;20.64;43.88
56414;BME280;42318;48.452;19.526;2023-02-13T13:21:34;100065.09;;;20.64;44.05
56414;BME280;42318;48.452;19.526;2023-02-13T13:29:18;100052.78;;;20.62;43.76
56414;BME280;42318;48.452;19.526;2023-02-13T13:36:55;100059.41;;;20.34;44.51
56414;BME280;42318;48.452;19.526;2023-02-13T13:44:42;100070.56;;;20.26;44.59
56414;BME280;42318;48.452;19.526;2023-02-13T13:52:33;100063.59;;;20.44;44.11
56414;BME280;42318;48.452;19.526;2023-02-13T14:07:40;100052.94;;;20.42;43.69
56414;BME280;42318;48.452;19.526;2023-02-13T14:23:27;100052.56;;;20.25;43.98
56414;BME280;42318;48.452;19.526;2023-02-13T14:31:07;100053.06;;;20.16;44.28
56414;BME280;42318;48.452;19.526;2023-02-13T14:38:41;100059.44;;;20.03;44.09
56414;BME280;42318;48.452;19.526;2023-02-13T14:53:54;100048.81;;;20.26;43.81
56414;BME280;42318;48.452;19.526;2023-02-13T15:01:52;100037.47;;;20.29;43.78
56414;BME280;42318;48.452;19.526;2023-02-13T15:09:34;100026.53;;;20.36;44.29
56414;BME280;42318;48.452;19.526;2023-02-13T15:17:19;100029.47;;;20.41;44.62
56414;BME280;42318;48.452;19.526;2023-02-13T15:24:51;100044.25;;;20.52;44.83
56414;BME280;42318;48.452;19.526;2023-02-13T15:32:34;100050.03;;;20.62;44.88
56414;BME280;42318;48.452;19.526;2023-02-13T15:40:26;100027.59;;;20.66;44.55
56414;BME280;42318;48.452;19.526;2023-02-13T15:47:58;100037.47;;;20.61;44.65
56414;BME280;42318;48.452;19.526;2023-02-13T15:55:31;100045.03;;;20.59;44.86
56414;BME280;42318;48.452;19.526;2023-02-13T16:03:05;100040.88;;;20.56;44.71
56414;BME280;42318;48.452;19.526;2023-02-13T16:10:38;100040.16;;;20.67;44.59
56414;BME280;42318;48.452;19.526;2023-02-13T16:18:16;100034.94;;;20.66;44.69
56414;BME280;42318;48.452;19.526;2023-02-13T16:25:48;100028.66;;;20.65;44.70
56414;BME280;42318;48.452;19.526;2023-02-13T16:33:29;100015.53;;;20.56;45.00
56414;BME280;42318;48.452;19.526;2023-02-13T16:56:26;100015.97;;;20.53;44.82
56414;BME280;42318;48.452;19.526;2023-02-13T17:03:58;100012.66;;;20.51;45.14
56414;BME280;42318;48.452;19.526;2023-02-13T17:11:28;100000.09;;;20.50;44.57
56414;BME280;42318;48.452;19.526;2023-02-13T17:18:59;99987.09;;;20.52;44.40
56414;BME280;42318;48.452;19.526;2023-02-13T17:26:30;99965.31;;;20.52;45.53
56414;BME280;42318;48.452;19.526;2023-02-13T17:34:01;99963.72;;;20.62;45.00
56414;BME280;42318;48.452;19.526;2023-02-13T17:41:32;99952.22;;;20.60;44.89
56414;BME280;42318;48.452;19.526;2023-02-13T17:49:03;99955.56;;;20.62;45.22
56414;BME280;42318;48.452;19.526;2023-02-13T17:56:34;99954.88;;;20.67;44.87
56414;BME280;42318;48.452;19.526;2023-02-13T18:04:04;99953.16;;;20.73;44.89
56414;BME280;42318;48.452;19.526;2023-02-13T18:11:35;99953.72;;;20.81;45.22
56414;BME280;42318;48.452;19.526;2023-02-13T18:19:06;99951.81;;;20.82;45.13
56414;BME280;42318;48.452;19.526;2023-02-13T18:26:37;99943.75;;;20.68;45.53
56414;BME280;42318;48.452;19.526;2023-02-13T18:34:08;99937.19;;;20.76;45.11
56414;BME280;42318;48.452;19.526;2023-02-13T18:41:38;99951.97;;;20.87;44.83
56414;BME280;42318;48.452;19.526;2023-02-13T18:49:10;99933.28;;;20.90;45.09
56414;BME280;42318;48.452;19.526;2023-02-13T18:56:42;99903.69;;;20.94;45.02
56414;BME280;42318;48.452;19.526;2023-02-13T19:04:13;99881.88;;;20.94;44.97
56414;BME280;42318;48.452;19.526;2023-02-13T19:11:43;99879.47;;;20.86;44.60
56414;BME280;42318;48.452;19.526;2023-02-13T19:19:14;99886.06;;;20.96;44.88
56414;BME280;42318;48.452;19.526;2023-02-13T19:26:45;99900.34;;;20.92;44.86
56414;BME280;42318;48.452;19.526;2023-02-13T19:34:16;99877.50;;;20.93;44.72
56414;BME280;42318;48.452;19.526;2023-02-13T19:41:47;99875.53;;;21.00;44.93
56414;BME280;42318;48.452;19.526;2023-02-13T19:49:18;99875.53;;;21.00;44.85
56414;BME280;42318;48.452;19.526;2023-02-13T19:56:51;99879.69;;;21.02;44.49
56414;BME280;42318;48.452;19.526;2023-02-13T20:04:24;99885.72;;;21.05;44.59
56414;BME280;42318;48.452;19.526;2023-02-13T20:11:54;99878.75;;;21.09;44.77
56414;BME280;42318;48.452;19.526;2023-02-13T20:19:25;99870.69;;;21.02;45.08
56414;BME280;42318;48.452;19.526;2023-02-13T20:26:57;99897.69;;;21.04;44.83
56414;BME280;42318;48.452;19.526;2023-02-13T20:34:28;99899.34;;;21.05;44.94
56414;BME280;42318;48.452;19.526;2023-02-13T20:41:59;99908.91;;;20.95;44.95
56414;BME280;42318;48.452;19.526;2023-02-13T20:49:30;99927.66;;;21.04;44.87
56414;BME280;42318;48.452;19.526;2023-02-13T20:57:01;99934.56;;;21.06;44.68
56414;BME280;42318;48.452;19.526;2023-02-13T21:04:31;99933.72;;;21.06;44.99
56414;BME280;42318;48.452;19.526;2023-02-13T21:12:03;99931.97;;;21.11;44.68
56414;BME280;42318;48.452;19.526;2023-02-13T21:19:35;99944.53;;;21.12;44.95
56414;BME280;42318;48.452;19.526;2023-02-13T21:27:06;99939.47;;;20.97;44.69
56414;BME280;42318;48.452;19.526;2023-02-13T21:34:37;99923.28;;;21.02;44.83
56414;BME280;42318;48.452;19.526;2023-02-13T21:42:08;99935.84;;;21.04;45.04
56414;BME280;42318;48.452;19.526;2023-02-13T21:49:39;99939.72;;;20.96;44.60
56414;BME280;42318;48.452;19.526;2023-02-13T21:57:10;99933.44;;;20.95;44.87
56414;BME280;42318;48.452;19.526;2023-02-13T22:04:41;99941.28;;;21.04;44.76
56414;BME280;42318;48.452;19.526;2023-02-13T22:12:12;99964.31;;;21.08;44.94
56414;BME280;42318;48.452;19.526;2023-02-13T22:19:43;99975.66;;;21.05;44.76
56414;BME280;42318;48.452;19.526;2023-02-13T22:27:13;99971.50;;;21.02;44.85
56414;BME280;42318;48.452;19.526;2023-02-13T22:34:44;99961.81;;;21.06;44.75
56414;BME280;42318;48.452;19.526;2023-02-13T22:42:15;99938.13;;;21.07;44.96
56414;BME280;42318;48.452;19.526;2023-02-13T22:49:46;99942.34;;;21.02;44.76
56414;BME280;42318;48.452;19.526;2023-02-13T22:57:16;99914.28;;;21.02;45.25
56414;BME280;42318;48.452;19.526;2023-02-13T23:04:47;99926.63;;;21.05;44.95
56414;BME280;42318;48.452;19.526;2023-02-13T23:12:18;99927.22;;;21.07;44.46
56414;BME280;42318;48.452;19.526;2023-02-13T23:20:10;99923.06;;;21.04;45.01
56414;BME280;42318;48.452;19.526;2023-02-13T23:27:41;99918.53;;;20.98;44.63
56414;BME280;42318;48.452;19.526;2023-02-13T23:35:12;99917.66;;;20.79;44.61
56414;BME280;42318;48.452;19.526;2023-02-13T23:42:43;99915.00;;;20.73;44.50
56414;BME280;42318;48.452;19.526;2023-02-13T23:50:14;99917.81;;;20.66;44.63
56414;BME280;42318;48.452;19.526;2023-02-13T23:57:45;99912.13;;;20.67;44.76
